sensor_id;sensor_type;location;lat;lon;timestamp;temperature;humidity
25342;DHT22;13298;48.792;9.154;2023-04-06T00:01:41;1.10;99.90
25342;DHT22;13298;48.792;9.154;2023-04-06T00:04:06;1.10;99.90
25342;DHT22;13298;48.792;9.154;2023-04-06T00:06:33;1.10;99.90
25342;DHT22;13298;48.792;9.154;2023-04-06T00:09:00;1.10;99.90
25342;DHT22;13298;48.792;9.154;2023-04-06T00:11:26;1.10;99.90
25342;DHT22;13298;48.792;9.154;2023-04-06T00:13:52;1.10;99.90
25342;DHT22;13298;48.792;9.154;2023-04-06T00:16:18;1.00;99.90
25342;DHT22;13298;48.792;9.154;2023-04-06T00:18:44;1.00;99.90
25342;DHT22;13298;48.792;9.154;2023-04-06T00:21:11;0.90;99.90
25342;DHT22;13298;48.792;9.154;2023-04-06T00:23:38;0.90;99.90
25342;DHT22;13298;48.792;9.154;2023-04-06T00:26:04;0.90;99.90
25342;DHT22;13298;48.792;9.154;2023-04-06T00:28:30;0.80;99.90
25342;DHT22;13298;48.792;9.154;2023-04-06T00:30:56;0.70;99.90
25342;DHT22;13298;48.792;9.154;2023-04-06T00:33:22;0.70;99.90
25342;DHT22;13298;48.792;9.154;2023-04-06T00:35:48;0.70;99.90
25342;DHT22;13298;48.792;9.154;2023-04-06T00:38:15;0.70;99.90
25342;DHT22;13298;48.792;9.154;2023-04-06T00:40:41;0.80;99.90
25342;DHT22;13298;48.792;9.154;2023-04-06T00:43:07;0.80;99.90
25342;DHT22;13298;48.792;9.154;2023-04-06T00:45:34;0.90;99.90
25342;DHT22;13298;48.792;9.154;2023-04-06T00:48:00;0.90;99.90
25342;DHT22;13298;48.792;9.154;2023-04-06T00:50:27;0.90;99.90
25342;DHT22;13298;48.792;9.154;2023-04-06T00:52:54;0.90;99.90
25342;DHT22;13298;48.792;9.154;2023-04-06T00:55:20;0.90;99.90
25342;DHT22;13298;48.792;9.154;2023-04-06T00:57:45;0.90;99.90
25342;DHT22;13298;48.792;9.154;2023-04-06T01:00:12;1.00;99.90
25342;DHT22;13298;48.792;9.154;2023-04-06T01:02:38;1.00;99.90
25342;DHT22;13298;48.792;9.154;2023-04-06T01:05:04;1.10;99.90
25342;DHT22;13298;48.792;9.154;2023-04-06T01:07:30;1.10;99.90
25342;DHT22;13298;48.792;9.154;2023-04-06T01:09:56;1.10;99.90
25342;DHT22;13298;48.792;9.154;2023-04-06T01:12:21;1.00;99.90
25342;DHT22;13298;48.792;9.154;2023-04-06T01:14:47;0.90;99.90
25342;DHT22;13298;48.792;9.154;2023-04-06T01:17:13;0.90;99.90
25342;DHT22;13298;48.792;9.154;2023-04-06T01:19:39;0.80;99.90
25342;DHT22;13298;48.792;9.154;2023-04-06T01:22:06;0.80;99.90
25342;DHT22;13298;48.792;9.154;2023-04-06T01:24:32;0.70;99.90
25342;DHT22;13298;48.792;9.154;2023-04-06T01:26:58;0.60;99.90
25342;DHT22;13298;48.792;9.154;2023-04-06T01:29:24;0.50;99.90
25342;DHT22;13298;48.792;9.154;2023-04-06T01:31:50;0.50;99.90
25342;DHT22;13298;48.792;9.154;2023-04-06T01:34:16;0.50;99.90
25342;DHT22;13298;48.792;9.154;2023-04-06T01:36:42;0.40;99.90
25342;DHT22;13298;48.792;9.154;2023-04-06T01:39:07;0.30;99.90
25342;DHT22;13298;48.792;9.154;2023-04-06T01:41:33;0.30;99.90
25342;DHT22;13298;48.792;9.154;2023-04-06T01:43:59;0.30;99.90
25342;DHT22;13298;48.792;9.154;2023-04-06T01:46:25;0.20;99.90
25342;DHT22;13298;48.792;9.154;2023-04-06T01:48:51;0.20;99.90
25342;DHT22;13298;48.792;9.154;2023-04-06T01:51:17;0.20;99.90
25342;DHT22;13298;48.792;9.154;2023-04-06T01:53:42;0.20;99.90
25342;DHT22;13298;48.792;9.154;2023-04-06T01:56:08;0.10;99.90
25342;DHT22;13298;48.792;9.154;2023-04-06T01:58:34;0.10;99.90
25342;DHT22;13298;48.792;9.154;2023-04-06T02:01:00;0.00;99.90
25342;DHT22;13298;48.792;9.154;2023-04-06T02:03:26;0.00;99.90
25342;DHT22;13298;48.792;9.154;2023-04-06T02:05:51;0.00;99.90
25342;DHT22;13298;48.792;9.154;2023-04-06T02:08:17;0.00;99.90
25342;DHT22;13298;48.792;9.154;2023-04-06T02:10:43;0.00;99.90
25342;DHT22;13298;48.792;9.154;2023-04-06T02:13:08;-0.10;99.90
25342;DHT22;13298;48.792;9.154;2023-04-06T02:15:34;-0.10;99.90
25342;DHT22;13298;48.792;9.154;2023-04-06T02:18:00;-0.10;99.90
25342;DHT22;13298;48.792;9.154;2023-04-06T02:20:26;-0.20;99.90
25342;DHT22;13298;48.792;9.154;2023-04-06T02:22:51;-0.20;99.90
25342;DHT22;13298;48.792;9.154;2023-04-06T02:25:17;-0.20;99.90
25342;DHT22;13298;48.792;9.154;2023-04-06T02:27:43;-0.20;99.90
25342;DHT22;13298;48.792;9.154;2023-04-06T02:30:09;-0.20;99.90
25342;DHT22;13298;48.792;9.154;2023-04-06T02:32:35;-0.20;99.90
25342;DHT22;13298;48.792;9.154;2023-04-06T02:35:01;-0.20;99.90
25342;DHT22;13298;48.792;9.154;2023-04-06T02:37:26;-0.30;99.90
25342;DHT22;13298;48.792;9.154;2023-04-06T02:39:52;-0.30;99.90
25342;DHT22;13298;48.792;9.154;2023-04-06T02:42:18;-0.30;99.90
25342;DHT22;13298;48.792;9.154;2023-04-06T02:44:44;-0.30;99.90
25342;DHT22;13298;48.792;9.154;2023-04-06T02:47:09;-0.30;99.90
25342;DHT22;13298;48.792;9.154;2023-04-06T02:49:36;-0.40;99.90
25342;DHT22;13298;48.792;9.154;2023-04-06T02:52:02;-0.40;99.90
25342;DHT22;13298;48.792;9.154;2023-04-06T02:54:28;-0.40;99.90
25342;DHT22;13298;48.792;9.154;2023-04-06T02:56:54;-0.40;99.90
25342;DHT22;13298;48.792;9.154;2023-04-06T02:59:19;-0.40;99.90
25342;DHT22;13298;48.792;9.154;2023-04-06T03:01:45;-0.40;99.90
25342;DHT22;13298;48.792;9.154;2023-04-06T03:04:11;-0.40;99.90
25342;DHT22;13298;48.792;9.154;2023-04-06T03:06:37;-0.40;99.90
25342;DHT22;13298;48.792;9.154;2023-04-06T03:09:03;-0.50;99.90
25342;DHT22;13298;48.792;9.154;2023-04-06T03:11:29;-0.50;99.90
25342;DHT22;13298;48.792;9.154;2023-04-06T03:13:54;-0.50;99.90
25342;DHT22;13298;48.792;9.154;2023-04-06T03:16:20;-0.50;99.90
25342;DHT22;13298;48.792;9.154;2023-04-06T03:18:46;-0.50;99.90
25342;DHT22;13298;48.792;9.154;2023-04-06T03:21:15;-0.50;99.90
25342;DHT22;13298;48.792;9.154;2023-04-06T03:23:42;-0.50;99.90
25342;DHT22;13298;48.792;9.154;2023-04-06T03:26:07;-0.50;99.90
25342;DHT22;13298;48.792;9.154;2023-04-06T03:28:33;-0.50;99.90
25342;DHT22;13298;48.792;9.154;2023-04-06T03:30:59;-0.60;99.90
25342;DHT22;13298;48.792;9.154;2023-04-06T03:33:25;-0.70;99.90
25342;DHT22;13298;48.792;9.154;2023-04-06T03:35:54;-0.70;99.90
25342;DHT22;13298;48.792;9.154;2023-04-06T03:38:20;-0.70;99.90
25342;DHT22;13298;48.792;9.154;2023-04-06T03:40:46;-0.70;99.90
25342;DHT22;13298;48.792;9.154;2023-04-06T03:43:11;-0.80;99.90
25342;DHT22;13298;48.792;9.154;2023-04-06T03:45:37;-0.80;99.90
25342;DHT22;13298;48.792;9.154;2023-04-06T03:48:03;-0.80;99.90
25342;DHT22;13298;48.792;9.154;2023-04-06T03:50:30;-0.80;99.90
25342;DHT22;13298;48.792;9.154;2023-04-06T03:52:55;-0.70;99.90
25342;DHT22;13298;48.792;9.154;2023-04-06T03:55:21;-0.70;99.90
25342;DHT22;13298;48.792;9.154;2023-04-06T03:57:47;-0.60;99.90
25342;DHT22;13298;48.792;9.154;2023-04-06T04:00:13;-0.60;99.90
25342;DHT22;13298;48.792;9.154;2023-04-06T04:02:39;-0.60;99.90
25342;DHT22;13298;48.792;9.154;2023-04-06T04:05:05;-0.50;99.90
25342;DHT22;13298;48.792;9.154;2023-04-06T04:07:31;-0.50;99.90
25342;DHT22;13298;48.792;9.154;2023-04-06T04:09:57;-0.50;99.90
25342;DHT22;13298;48.792;9.154;2023-04-06T04:12:22;-0.50;99.90
25342;DHT22;13298;48.792;9.154;2023-04-06T04:14:48;-0.50;99.90
25342;DHT22;13298;48.792;9.154;2023-04-06T04:17:14;-0.50;99.90
25342;DHT22;13298;48.792;9.154;2023-04-06T04:19:40;-0.50;99.90
25342;DHT22;13298;48.792;9.154;2023-04-06T04:22:05;-0.60;99.90
25342;DHT22;13298;48.792;9.154;2023-04-06T04:24:32;-0.50;99.90
25342;DHT22;13298;48.792;9.154;2023-04-06T04:26:58;-0.50;99.90
25342;DHT22;13298;48.792;9.154;2023-04-06T04:29:26;-0.50;99.90
25342;DHT22;13298;48.792;9.154;2023-04-06T04:31:52;-0.50;99.90
25342;DHT22;13298;48.792;9.154;2023-04-06T04:34:18;-0.50;99.90
25342;DHT22;13298;48.792;9.154;2023-04-06T04:36:46;-0.50;99.90
25342;DHT22;13298;48.792;9.154;2023-04-06T04:39:11;-0.40;99.90
25342;DHT22;13298;48.792;9.154;2023-04-06T04:41:37;-0.40;99.90
25342;DHT22;13298;48.792;9.154;2023-04-06T04:44:03;-0.40;99.90
25342;DHT22;13298;48.792;9.154;2023-04-06T04:46:29;-0.40;99.90
25342;DHT22;13298;48.792;9.154;2023-04-06T04:48:54;-0.30;99.90
25342;DHT22;13298;48.792;9.154;2023-04-06T04:51:20;-0.30;99.90
25342;DHT22;13298;48.792;9.154;2023-04-06T04:53:46;-0.40;99.90
25342;DHT22;13298;48.792;9.154;2023-04-06T04:56:12;-0.40;99.90
25342;DHT22;13298;48.792;9.154;2023-04-06T04:58:37;-0.30;99.90
25342;DHT22;13298;48.792;9.154;2023-04-06T05:01:03;-0.30;99.90
25342;DHT22;13298;48.792;9.154;2023-04-06T05:03:29;-0.30;99.90
25342;DHT22;13298;48.792;9.154;2023-04-06T05:05:55;-0.20;99.90
25342;DHT22;13298;48.792;9.154;2023-04-06T05:08:21;-0.20;99.90
25342;DHT22;13298;48.792;9.154;2023-04-06T05:10:46;-0.20;99.90
25342;DHT22;13298;48.792;9.154;2023-04-06T05:13:13;-0.10;99.90
25342;DHT22;13298;48.792;9.154;2023-04-06T05:15:40;-0.10;99.90
25342;DHT22;13298;48.792;9.154;2023-04-06T05:18:09;0.00;99.90
25342;DHT22;13298;48.792;9.154;2023-04-06T05:20:35;0.00;99.90
25342;DHT22;13298;48.792;9.154;2023-04-06T05:23:01;0.10;99.90
25342;DHT22;13298;48.792;9.154;2023-04-06T05:25:27;0.10;99.90
25342;DHT22;13298;48.792;9.154;2023-04-06T05:27:53;0.20;99.90
25342;DHT22;13298;48.792;9.154;2023-04-06T05:30:20;0.30;99.90
25342;DHT22;13298;48.792;9.154;2023-04-06T05:32:46;0.30;99.90
25342;DHT22;13298;48.792;9.154;2023-04-06T05:35:12;0.40;99.90
25342;DHT22;13298;48.792;9.154;2023-04-06T05:37:39;0.50;99.90
25342;DHT22;13298;48.792;9.154;2023-04-06T05:40:05;0.60;99.90
25342;DHT22;13298;48.792;9.154;2023-04-06T05:42:38;0.70;99.90
25342;DHT22;13298;48.792;9.154;2023-04-06T05:45:05;0.70;99.90
25342;DHT22;13298;48.792;9.154;2023-04-06T05:47:32;0.80;99.90
25342;DHT22;13298;48.792;9.154;2023-04-06T05:49:57;0.90;99.90
25342;DHT22;13298;48.792;9.154;2023-04-06T05:52:23;1.00;99.90
25342;DHT22;13298;48.792;9.154;2023-04-06T05:54:49;1.10;99.90
25342;DHT22;13298;48.792;9.154;2023-04-06T05:57:15;1.10;99.90
25342;DHT22;13298;48.792;9.154;2023-04-06T05:59:42;1.20;99.90
25342;DHT22;13298;48.792;9.154;2023-04-06T06:02:07;1.30;99.90
25342;DHT22;13298;48.792;9.154;2023-04-06T06:04:33;1.40;99.90
25342;DHT22;13298;48.792;9.154;2023-04-06T06:06:59;1.50;99.90
25342;DHT22;13298;48.792;9.154;2023-04-06T06:09:25;1.50;99.90
25342;DHT22;13298;48.792;9.154;2023-04-06T06:11:51;1.60;99.90
25342;DHT22;13298;48.792;9.154;2023-04-06T06:14:17;1.70;99.90
25342;DHT22;13298;48.792;9.154;2023-04-06T06:16:43;1.80;99.90
25342;DHT22;13298;48.792;9.154;2023-04-06T06:19:09;1.90;99.90
25342;DHT22;13298;48.792;9.154;2023-04-06T06:21:34;1.90;99.90
25342;DHT22;13298;48.792;9.154;2023-04-06T06:24:00;2.00;99.90
25342;DHT22;13298;48.792;9.154;2023-04-06T06:26:26;2.10;99.90
25342;DHT22;13298;48.792;9.154;2023-04-06T06:28:52;2.20;99.90
25342;DHT22;13298;48.792;9.154;2023-04-06T06:31:17;2.30;99.90
25342;DHT22;13298;48.792;9.154;2023-04-06T06:33:46;2.40;99.90
25342;DHT22;13298;48.792;9.154;2023-04-06T06:36:13;2.50;99.90
25342;DHT22;13298;48.792;9.154;2023-04-06T06:38:38;2.60;99.90
25342;DHT22;13298;48.792;9.154;2023-04-06T06:41:04;2.60;99.90
25342;DHT22;13298;48.792;9.154;2023-04-06T06:43:30;2.70;99.90
25342;DHT22;13298;48.792;9.154;2023-04-06T06:45:55;2.90;99.90
25342;DHT22;13298;48.792;9.154;2023-04-06T06:48:21;3.00;99.90
25342;DHT22;13298;48.792;9.154;2023-04-06T06:50:48;3.10;99.90
25342;DHT22;13298;48.792;9.154;2023-04-06T06:53:13;3.20;99.90
25342;DHT22;13298;48.792;9.154;2023-04-06T06:55:40;3.30;99.90
25342;DHT22;13298;48.792;9.154;2023-04-06T06:58:05;3.40;99.90
25342;DHT22;13298;48.792;9.154;2023-04-06T07:00:32;3.50;99.90
25342;DHT22;13298;48.792;9.154;2023-04-06T07:02:57;3.60;99.90
25342;DHT22;13298;48.792;9.154;2023-04-06T07:05:23;3.70;99.90
25342;DHT22;13298;48.792;9.154;2023-04-06T07:07:49;3.80;99.90
25342;DHT22;13298;48.792;9.154;2023-04-06T07:10:15;3.90;99.90
25342;DHT22;13298;48.792;9.154;2023-04-06T07:12:41;4.10;99.90
25342;DHT22;13298;48.792;9.154;2023-04-06T07:15:07;4.10;99.90
25342;DHT22;13298;48.792;9.154;2023-04-06T07:17:33;4.20;99.90
25342;DHT22;13298;48.792;9.154;2023-04-06T07:19:59;4.30;99.90
25342;DHT22;13298;48.792;9.154;2023-04-06T07:22:25;4.40;99.90
25342;DHT22;13298;48.792;9.154;2023-04-06T07:24:50;4.50;99.90
25342;DHT22;13298;48.792;9.154;2023-04-06T07:27:16;4.60;99.90
25342;DHT22;13298;48.792;9.154;2023-04-06T07:29:42;4.70;99.90
25342;DHT22;13298;48.792;9.154;2023-04-06T07:32:08;4.80;99.90
25342;DHT22;13298;48.792;9.154;2023-04-06T07:34:34;4.90;99.90
25342;DHT22;13298;48.792;9.154;2023-04-06T07:36:59;5.10;99.90
25342;DHT22;13298;48.792;9.154;2023-04-06T07:39:26;5.20;99.90
25342;DHT22;13298;48.792;9.154;2023-04-06T07:41:52;5.30;99.90
25342;DHT22;13298;48.792;9.154;2023-04-06T07:44:18;5.40;99.90
25342;DHT22;13298;48.792;9.154;2023-04-06T07:46:43;5.50;99.90
25342;DHT22;13298;48.792;9.154;2023-04-06T07:49:09;5.60;99.90
25342;DHT22;13298;48.792;9.154;2023-04-06T07:51:38;5.70;99.90
25342;DHT22;13298;48.792;9.154;2023-04-06T07:54:04;5.80;99.90
25342;DHT22;13298;48.792;9.154;2023-04-06T07:56:30;5.90;99.90
25342;DHT22;13298;48.792;9.154;2023-04-06T07:58:56;6.00;99.90
25342;DHT22;13298;48.792;9.154;2023-04-06T08:01:23;6.10;99.90
25342;DHT22;13298;48.792;9.154;2023-04-06T08:03:49;6.20;99.90
25342;DHT22;13298;48.792;9.154;2023-04-06T08:06:15;6.40;99.90
25342;DHT22;13298;48.792;9.154;2023-04-06T08:08:41;6.40;99.90
25342;DHT22;13298;48.792;9.154;2023-04-06T08:11:07;6.50;99.90
25342;DHT22;13298;48.792;9.154;2023-04-06T08:13:34;6.60;99.90
25342;DHT22;13298;48.792;9.154;2023-04-06T08:16:05;6.70;99.90
25342;DHT22;13298;48.792;9.154;2023-04-06T08:18:31;6.80;99.90
25342;DHT22;13298;48.792;9.154;2023-04-06T08:20:57;6.90;99.90
25342;DHT22;13298;48.792;9.154;2023-04-06T08:23:23;6.90;99.90
25342;DHT22;13298;48.792;9.154;2023-04-06T08:25:49;7.00;99.90
25342;DHT22;13298;48.792;9.154;2023-04-06T08:28:14;7.20;99.90
25342;DHT22;13298;48.792;9.154;2023-04-06T08:30:41;7.40;99.90
25342;DHT22;13298;48.792;9.154;2023-04-06T08:33:08;7.50;99.90
25342;DHT22;13298;48.792;9.154;2023-04-06T08:35:34;7.60;99.90
25342;DHT22;13298;48.792;9.154;2023-04-06T08:38:00;7.70;99.90
25342;DHT22;13298;48.792;9.154;2023-04-06T08:40:26;7.70;99.90
25342;DHT22;13298;48.792;9.154;2023-04-06T08:42:55;7.80;99.90
25342;DHT22;13298;48.792;9.154;2023-04-06T08:45:21;7.80;99.60
25342;DHT22;13298;48.792;9.154;2023-04-06T08:47:51;7.90;99.80
25342;DHT22;13298;48.792;9.154;2023-04-06T08:50:18;8.00;99.10
25342;DHT22;13298;48.792;9.154;2023-04-06T08:52:47;8.10;99.10
25342;DHT22;13298;48.792;9.154;2023-04-06T08:55:14;8.10;98.90
25342;DHT22;13298;48.792;9.154;2023-04-06T08:57:40;8.20;98.60
25342;DHT22;13298;48.792;9.154;2023-04-06T09:00:07;8.20;98.20
25342;DHT22;13298;48.792;9.154;2023-04-06T09:02:39;8.30;98.00
25342;DHT22;13298;48.792;9.154;2023-04-06T09:05:08;8.30;97.20
25342;DHT22;13298;48.792;9.154;2023-04-06T09:07:36;8.40;97.10
25342;DHT22;13298;48.792;9.154;2023-04-06T09:10:03;8.40;96.80
25342;DHT22;13298;48.792;9.154;2023-04-06T09:12:31;8.40;96.40
25342;DHT22;13298;48.792;9.154;2023-04-06T09:14:58;8.40;96.30
25342;DHT22;13298;48.792;9.154;2023-04-06T09:17:26;8.50;96.50
25342;DHT22;13298;48.792;9.154;2023-04-06T09:19:54;8.60;94.60
25342;DHT22;13298;48.792;9.154;2023-04-06T09:22:20;8.60;94.90
25342;DHT22;13298;48.792;9.154;2023-04-06T09:24:51;8.70;94.70
25342;DHT22;13298;48.792;9.154;2023-04-06T09:27:30;8.80;94.10
25342;DHT22;13298;48.792;9.154;2023-04-06T09:30:10;8.80;94.50
25342;DHT22;13298;48.792;9.154;2023-04-06T09:32:46;8.90;93.80
25342;DHT22;13298;48.792;9.154;2023-04-06T09:35:13;8.90;94.90
25342;DHT22;13298;48.792;9.154;2023-04-06T09:37:39;9.00;94.70
25342;DHT22;13298;48.792;9.154;2023-04-06T09:40:06;9.10;93.90
25342;DHT22;13298;48.792;9.154;2023-04-06T09:42:33;9.10;93.90
25342;DHT22;13298;48.792;9.154;2023-04-06T09:45:00;9.10;93.70
25342;DHT22;13298;48.792;9.154;2023-04-06T09:47:26;9.20;93.20
25342;DHT22;13298;48.792;9.154;2023-04-06T09:49:57;9.30;93.20
25342;DHT22;13298;48.792;9.154;2023-04-06T09:52:31;9.40;92.60
25342;DHT22;13298;48.792;9.154;2023-04-06T09:55:04;9.40;92.60
25342;DHT22;13298;48.792;9.154;2023-04-06T09:57:50;9.40;92.40
25342;DHT22;13298;48.792;9.154;2023-04-06T10:00:22;9.50;92.00
25342;DHT22;13298;48.792;9.154;2023-04-06T10:03:21;9.50;90.40
25342;DHT22;13298;48.792;9.154;2023-04-06T10:06:06;9.50;90.30
25342;DHT22;13298;48.792;9.154;2023-04-06T10:08:39;9.60;90.90
25342;DHT22;13298;48.792;9.154;2023-04-06T10:11:07;9.70;90.20
25342;DHT22;13298;48.792;9.154;2023-04-06T10:13:34;9.70;88.70
25342;DHT22;13298;48.792;9.154;2023-04-06T10:16:00;9.70;88.80
25342;DHT22;13298;48.792;9.154;2023-04-06T10:18:27;9.70;90.50
25342;DHT22;13298;48.792;9.154;2023-04-06T10:21:01;9.70;88.40
25342;DHT22;13298;48.792;9.154;2023-04-06T10:23:41;9.70;87.60
25342;DHT22;13298;48.792;9.154;2023-04-06T10:26:14;9.70;86.10
25342;DHT22;13298;48.792;9.154;2023-04-06T10:28:42;9.70;85.50
25342;DHT22;13298;48.792;9.154;2023-04-06T10:31:09;9.80;84.60
25342;DHT22;13298;48.792;9.154;2023-04-06T10:33:35;9.90;85.50
25342;DHT22;13298;48.792;9.154;2023-04-06T10:36:14;9.90;84.50
25342;DHT22;13298;48.792;9.154;2023-04-06T10:38:41;9.90;83.20
25342;DHT22;13298;48.792;9.154;2023-04-06T10:41:09;9.90;82.10
25342;DHT22;13298;48.792;9.154;2023-04-06T10:43:40;10.00;81.70
25342;DHT22;13298;48.792;9.154;2023-04-06T10:46:07;10.10;83.40
25342;DHT22;13298;48.792;9.154;2023-04-06T10:51:09;10.20;80.90
25342;DHT22;13298;48.792;9.154;2023-04-06T10:53:36;10.30;82.00
25342;DHT22;13298;48.792;9.154;2023-04-06T10:56:02;10.30;81.20
25342;DHT22;13298;48.792;9.154;2023-04-06T10:58:30;10.40;80.10
25342;DHT22;13298;48.792;9.154;2023-04-06T11:00:56;10.50;79.40
25342;DHT22;13298;48.792;9.154;2023-04-06T11:03:22;10.50;79.50
25342;DHT22;13298;48.792;9.154;2023-04-06T11:05:49;10.50;79.60
25342;DHT22;13298;48.792;9.154;2023-04-06T11:08:42;10.70;79.10
25342;DHT22;13298;48.792;9.154;2023-04-06T11:11:10;10.80;76.50
25342;DHT22;13298;48.792;9.154;2023-04-06T11:13:54;10.90;78.20
25342;DHT22;13298;48.792;9.154;2023-04-06T11:16:27;10.90;76.60
25342;DHT22;13298;48.792;9.154;2023-04-06T11:19:04;10.80;74.30
25342;DHT22;13298;48.792;9.154;2023-04-06T11:24:23;10.70;74.70
25342;DHT22;13298;48.792;9.154;2023-04-06T11:26:57;10.70;74.80
25342;DHT22;13298;48.792;9.154;2023-04-06T11:29:28;10.80;76.50
25342;DHT22;13298;48.792;9.154;2023-04-06T11:31:59;10.80;75.80
25342;DHT22;13298;48.792;9.154;2023-04-06T11:34:28;11.00;76.30
25342;DHT22;13298;48.792;9.154;2023-04-06T11:37:00;11.10;75.00
25342;DHT22;13298;48.792;9.154;2023-04-06T11:39:28;11.30;75.30
25342;DHT22;13298;48.792;9.154;2023-04-06T11:41:58;11.40;72.80
25342;DHT22;13298;48.792;9.154;2023-04-06T11:44:38;11.50;73.60
25342;DHT22;13298;48.792;9.154;2023-04-06T11:47:06;11.50;71.40
25342;DHT22;13298;48.792;9.154;2023-04-06T11:49:37;11.50;69.80
25342;DHT22;13298;48.792;9.154;2023-04-06T11:52:21;11.50;71.20
25342;DHT22;13298;48.792;9.154;2023-04-06T11:54:49;11.60;71.10
25342;DHT22;13298;48.792;9.154;2023-04-06T11:57:17;11.60;72.50
25342;DHT22;13298;48.792;9.154;2023-04-06T11:59:43;11.70;71.70
25342;DHT22;13298;48.792;9.154;2023-04-06T12:02:09;11.60;69.20
25342;DHT22;13298;48.792;9.154;2023-04-06T12:04:35;11.60;68.80
25342;DHT22;13298;48.792;9.154;2023-04-06T12:07:01;11.60;70.00
25342;DHT22;13298;48.792;9.154;2023-04-06T12:09:27;11.60;69.70
25342;DHT22;13298;48.792;9.154;2023-04-06T12:11:53;11.60;69.90
25342;DHT22;13298;48.792;9.154;2023-04-06T12:14:19;11.70;69.30
25342;DHT22;13298;48.792;9.154;2023-04-06T12:16:44;11.80;68.60
25342;DHT22;13298;48.792;9.154;2023-04-06T12:19:10;11.80;69.60
25342;DHT22;13298;48.792;9.154;2023-04-06T12:21:36;11.90;67.80
25342;DHT22;13298;48.792;9.154;2023-04-06T12:24:05;12.00;68.40
25342;DHT22;13298;48.792;9.154;2023-04-06T12:26:32;12.00;68.20
25342;DHT22;13298;48.792;9.154;2023-04-06T12:29:01;12.00;67.10
25342;DHT22;13298;48.792;9.154;2023-04-06T12:31:32;11.90;67.80
25342;DHT22;13298;48.792;9.154;2023-04-06T12:34:00;11.90;66.10
25342;DHT22;13298;48.792;9.154;2023-04-06T12:36:27;11.90;66.70
25342;DHT22;13298;48.792;9.154;2023-04-06T12:38:53;11.90;67.50
25342;DHT22;13298;48.792;9.154;2023-04-06T12:41:19;11.80;65.50
25342;DHT22;13298;48.792;9.154;2023-04-06T12:43:45;11.70;68.30
25342;DHT22;13298;48.792;9.154;2023-04-06T12:46:11;11.70;66.90
25342;DHT22;13298;48.792;9.154;2023-04-06T12:48:37;11.70;66.60
25342;DHT22;13298;48.792;9.154;2023-04-06T12:51:06;11.50;65.90
25342;DHT22;13298;48.792;9.154;2023-04-06T12:53:35;11.60;66.30
25342;DHT22;13298;48.792;9.154;2023-04-06T12:56:02;11.70;65.60
25342;DHT22;13298;48.792;9.154;2023-04-06T12:58:28;11.70;66.90
25342;DHT22;13298;48.792;9.154;2023-04-06T13:00:55;11.70;66.60
25342;DHT22;13298;48.792;9.154;2023-04-06T13:03:22;11.70;67.00
25342;DHT22;13298;48.792;9.154;2023-04-06T13:05:51;11.70;66.50
25342;DHT22;13298;48.792;9.154;2023-04-06T13:08:18;11.80;66.40
25342;DHT22;13298;48.792;9.154;2023-04-06T13:10:48;11.90;65.90
25342;DHT22;13298;48.792;9.154;2023-04-06T13:13:16;12.10;65.50
25342;DHT22;13298;48.792;9.154;2023-04-06T13:15:42;12.50;66.30
25342;DHT22;13298;48.792;9.154;2023-04-06T13:18:08;12.70;63.50
25342;DHT22;13298;48.792;9.154;2023-04-06T13:20:35;12.80;61.50
25342;DHT22;13298;48.792;9.154;2023-04-06T13:23:01;12.90;62.60
25342;DHT22;13298;48.792;9.154;2023-04-06T13:25:27;12.80;62.00
25342;DHT22;13298;48.792;9.154;2023-04-06T13:27:53;12.80;63.50
25342;DHT22;13298;48.792;9.154;2023-04-06T13:30:20;12.90;60.90
25342;DHT22;13298;48.792;9.154;2023-04-06T13:32:45;12.90;62.80
25342;DHT22;13298;48.792;9.154;2023-04-06T13:35:11;13.10;61.30
25342;DHT22;13298;48.792;9.154;2023-04-06T13:37:38;13.30;60.90
25342;DHT22;13298;48.792;9.154;2023-04-06T13:40:04;13.50;60.30
25342;DHT22;13298;48.792;9.154;2023-04-06T13:42:30;13.60;58.30
25342;DHT22;13298;48.792;9.154;2023-04-06T13:44:56;13.60;59.00
25342;DHT22;13298;48.792;9.154;2023-04-06T13:47:22;13.70;58.30
25342;DHT22;13298;48.792;9.154;2023-04-06T13:49:50;13.90;58.80
25342;DHT22;13298;48.792;9.154;2023-04-06T13:52:17;14.10;57.60
25342;DHT22;13298;48.792;9.154;2023-04-06T13:54:43;14.10;55.90
25342;DHT22;13298;48.792;9.154;2023-04-06T13:57:09;14.10;57.20
25342;DHT22;13298;48.792;9.154;2023-04-06T13:59:35;14.10;57.10
25342;DHT22;13298;48.792;9.154;2023-04-06T14:02:06;14.20;58.00
25342;DHT22;13298;48.792;9.154;2023-04-06T14:04:33;14.20;57.00
25342;DHT22;13298;48.792;9.154;2023-04-06T14:07:00;14.20;56.40
25342;DHT22;13298;48.792;9.154;2023-04-06T14:09:28;14.30;56.30
25342;DHT22;13298;48.792;9.154;2023-04-06T14:11:54;14.40;56.50
25342;DHT22;13298;48.792;9.154;2023-04-06T14:14:20;14.50;55.20
25342;DHT22;13298;48.792;9.154;2023-04-06T14:16:47;14.60;55.40
25342;DHT22;13298;48.792;9.154;2023-04-06T14:19:15;14.60;57.00
25342;DHT22;13298;48.792;9.154;2023-04-06T14:21:41;14.60;56.20
25342;DHT22;13298;48.792;9.154;2023-04-06T14:24:09;14.60;56.00
25342;DHT22;13298;48.792;9.154;2023-04-06T14:26:35;14.50;56.00
25342;DHT22;13298;48.792;9.154;2023-04-06T14:29:03;14.40;57.80
25342;DHT22;13298;48.792;9.154;2023-04-06T14:31:32;14.50;54.80
25342;DHT22;13298;48.792;9.154;2023-04-06T14:34:00;14.40;55.20
25342;DHT22;13298;48.792;9.154;2023-04-06T14:36:26;14.40;55.90
25342;DHT22;13298;48.792;9.154;2023-04-06T14:39:01;14.50;57.10
25342;DHT22;13298;48.792;9.154;2023-04-06T14:41:31;14.50;56.50
25342;DHT22;13298;48.792;9.154;2023-04-06T14:44:12;14.50;56.60
25342;DHT22;13298;48.792;9.154;2023-04-06T14:46:38;14.40;54.10
25342;DHT22;13298;48.792;9.154;2023-04-06T14:49:04;14.30;54.20
25342;DHT22;13298;48.792;9.154;2023-04-06T14:51:30;14.30;54.70
25342;DHT22;13298;48.792;9.154;2023-04-06T14:53:56;14.30;54.70
25342;DHT22;13298;48.792;9.154;2023-04-06T14:56:23;14.30;55.30
25342;DHT22;13298;48.792;9.154;2023-04-06T14:58:50;14.30;53.80
25342;DHT22;13298;48.792;9.154;2023-04-06T15:01:18;14.40;54.80
25342;DHT22;13298;48.792;9.154;2023-04-06T15:03:43;14.60;55.50
25342;DHT22;13298;48.792;9.154;2023-04-06T15:06:13;14.70;53.80
25342;DHT22;13298;48.792;9.154;2023-04-06T15:08:43;14.70;53.70
25342;DHT22;13298;48.792;9.154;2023-04-06T15:11:09;14.80;54.60
25342;DHT22;13298;48.792;9.154;2023-04-06T15:13:35;14.70;54.60
25342;DHT22;13298;48.792;9.154;2023-04-06T15:16:02;14.70;54.80
25342;DHT22;13298;48.792;9.154;2023-04-06T15:18:27;14.60;55.30
25342;DHT22;13298;48.792;9.154;2023-04-06T15:20:53;14.50;53.70
25342;DHT22;13298;48.792;9.154;2023-04-06T15:23:19;14.40;54.70
25342;DHT22;13298;48.792;9.154;2023-04-06T15:25:45;14.30;53.60
25342;DHT22;13298;48.792;9.154;2023-04-06T15:28:10;14.10;55.10
25342;DHT22;13298;48.792;9.154;2023-04-06T15:30:37;14.00;54.60
25342;DHT22;13298;48.792;9.154;2023-04-06T15:33:04;14.00;54.30
25342;DHT22;13298;48.792;9.154;2023-04-06T15:35:30;14.00;54.50
25342;DHT22;13298;48.792;9.154;2023-04-06T15:37:56;13.90;55.60
25342;DHT22;13298;48.792;9.154;2023-04-06T15:40:23;13.80;54.90
25342;DHT22;13298;48.792;9.154;2023-04-06T15:42:49;13.80;54.90